Pagina principale
METAR-TAF:

METAR-TAF

Aeroporti :

Aeroporto di Colonia-Bonn

Colonia, Germania

latitudine: 50-52N, longitudine: 007-10E, altezza: 91 m

Osservazione

Il bollettino è stato emesso 25 minuti fa, alle 03:50 UTC
Vento 3 kt da nord/nord-est, variando fra nord e est/nord-est
Temperature -3°C
Umidità 58%
Pressione 1032 hPa
Visibilità 10 km o più
nessuna nube inferiore a 1500 m e nessun cumulonembo

METAR: EDDK 300350Z 02003KT 360V070 CAVOK M03/M10 Q1032 NOSIG

Ora: 06:15 (04:15 UTC)

Previsione

Il bollettino è stato emesso 5 ore e 15 minuti fa, alle 23:00 UTC
Previsione valida dal 30 alle 00 UTC al 31 alle 06 UTC
Vento 5 kt da nord/nord-est
Visibilità 10 km o più
nessuna nube inferiore a 1500 m e nessun cumulonembo
Evoluzione graduale
dal 30 alle 08 UTC al 30 alle 10 UTC
Vento 7 kt da nord-ovest
Evoluzione graduale
dal 30 alle 19 UTC al 30 alle 22 UTC
Vento 4 kt da nord-est

TAF: EDDK 292300Z 3000/3106 02005KT CAVOK BECMG 3008/3010 32007KT BECMG 3019/3022 04004KT

Osservazioni e previsioni meteorologiche di più di 4000 aeroporti (messaggi METAR e TAF).

Le stazioni disponibili sono rappresentate dai dischi gialli e rossi sulla carta.

Puntare il mouse per vedere il nome della stazione.

Clicca sopra per visualizzare le osservazioni e previsioni meteorologiche.

Per cambiare la mappa : fare clic sui pulsanti verdi con una croce nera per ingrandire, il pulsante verde con un trattino per diminuire, o sulla freccia verde per le mappe adiacenti.


METAR-TAF: